Time;durP1;ratioP1;P1;durP2;ratioP2;P2;SDS_P1;SDS_P2;PMS_P1;PMS_P2;Temp;Humidity;BMP_temperature;BMP_pressure;BME280_temperature;BME280_humidity;BME280_pressure;Samples;Min_cycle;Max_cycle;Signal;HPM_P1;HPM_P2
2022/02/03 00:00:25;;;;;;;;;;;22.60;45.80;;;;;;5082721;28;19916;-67
2022/02/03 00:03:08;;;;;;;;;;;22.60;45.80;;;;;;5084326;28;20006;-67
2022/02/03 00:09:16;;;;;;;;;;;22.60;45.90;;;;;;5079894;28;20129;-67
2022/02/03 00:23:15;;;;;;;;;;;22.50;46.00;;;;;;5082225;28;19923;-71
2022/02/03 00:24:57;;;;;;;;;;;22.50;46.00;;;;;;5078354;28;19920;-68
2022/02/03 00:27:35;;;;;;;;;;;22.40;46.00;;;;;;5084026;28;19923;-68
2022/02/03 00:30:05;;;;;;;;;;;22.40;46.00;;;;;;5082335;28;19942;-66
2022/02/03 00:48:41;;;;;;;;;;;22.30;46.20;;;;;;5083965;28;19922;-68
2022/02/03 00:51:07;;;;;;;;;;;22.20;46.30;;;;;;5083552;28;19955;-68
2022/02/03 00:53:33;;;;;;;;;;;22.20;46.30;;;;;;5081966;28;19947;-68
2022/02/03 00:56:02;;;;;;;;;;;22.20;46.40;;;;;;5085123;28;20255;-67
2022/02/03 00:58:27;;;;;;;;;;;22.10;46.40;;;;;;5081816;28;20744;-69
2022/02/03 01:00:57;;;;;;;;;;;22.10;46.40;;;;;;5082714;28;19920;-67
2022/02/03 01:03:25;;;;;;;;;;;22.10;46.50;;;;;;5081845;28;19920;-69
2022/02/03 01:05:53;;;;;;;;;;;22.10;46.50;;;;;;5085535;28;19999;-66
2022/02/03 01:08:22;;;;;;;;;;;22.10;46.50;;;;;;5083774;28;19919;-69
2022/02/03 01:10:56;;;;;;;;;;;22.10;46.50;;;;;;5084497;28;20428;-70
2022/02/03 01:17:01;;;;;;;;;;;22.00;46.50;;;;;;5083814;28;19958;-68
2022/02/03 01:35:09;;;;;;;;;;;21.90;46.60;;;;;;5085859;28;19927;-66
2022/02/03 01:37:51;;;;;;;;;;;21.90;46.70;;;;;;5088381;28;19938;-68
2022/02/03 01:53:28;;;;;;;;;;;21.80;46.80;;;;;;5086471;28;20057;-71
2022/02/03 01:56:01;;;;;;;;;;;21.70;46.80;;;;;;5087344;28;19958;-71
2022/02/03 01:58:39;;;;;;;;;;;21.70;46.90;;;;;;5085715;28;20517;-69
2022/02/03 02:01:04;;;;;;;;;;;21.70;46.90;;;;;;5086708;28;19935;-70
2022/02/03 02:03:38;;;;;;;;;;;21.70;46.90;;;;;;5085333;28;20444;-69
2022/02/03 02:06:08;;;;;;;;;;;21.70;46.90;;;;;;5087477;28;19968;-70
2022/02/03 02:08:36;;;;;;;;;;;21.70;47.00;;;;;;5085442;28;19955;-69
2022/02/03 02:11:31;;;;;;;;;;;21.70;47.00;;;;;;5087305;28;19981;-70
2022/02/03 02:39:12;;;;;;;;;;;21.50;47.20;;;;;;5085384;28;19985;-68
2022/02/03 02:44:23;;;;;;;;;;;21.50;47.30;;;;;;5083125;28;20034;-68
2022/02/03 02:46:53;;;;;;;;;;;21.50;47.30;;;;;;5086192;28;19923;-67
2022/02/03 02:49:23;;;;;;;;;;;21.40;47.30;;;;;;5085396;28;20364;-67
2022/02/03 02:51:54;;;;;;;;;;;21.40;47.30;;;;;;5086022;28;20398;-68
2022/02/03 02:54:45;;;;;;;;;;;21.40;47.30;;;;;;5085156;28;19912;-69
2022/02/03 03:30:13;;;;;;;;;;;21.30;47.60;;;;;;5082740;28;20034;-68
2022/02/03 03:35:33;;;;;;;;;;;21.20;47.60;;;;;;5084536;28;19959;-71
2022/02/03 03:37:59;;;;;;;;;;;21.20;47.60;;;;;;5085402;28;20025;-69
2022/02/03 03:40:27;;;;;;;;;;;21.20;47.60;;;;;;5084793;28;20007;-69
2022/02/03 03:42:59;;;;;;;;;;;21.20;47.70;;;;;;5083289;28;19949;-69
2022/02/03 03:45:26;;;;;;;;;;;21.20;47.70;;;;;;5082939;28;19965;-68
2022/02/03 03:47:57;;;;;;;;;;;21.20;47.70;;;;;;5083122;28;20368;-70
2022/02/03 03:50:24;;;;;;;;;;;21.20;47.70;;;;;;5085381;28;19926;-69
2022/02/03 03:52:56;;;;;;;;;;;21.20;47.70;;;;;;5099606;28;19920;-70
2022/02/03 05:05:31;;;;;;;;;;;21.00;48.10;;;;;;5088018;28;19930;-67
2022/02/03 05:13:30;;;;;;;;;;;20.90;48.20;;;;;;5084774;28;20295;-66
2022/02/03 05:17:00;;;;;;;;;;;20.90;48.20;;;;;;5085245;28;19928;-67
2022/02/03 05:19:21;;;;;;;;;;;21.00;48.20;;;;;;5084894;28;19916;-65
2022/02/03 05:22:33;;;;;;;;;;;21.00;48.20;;;;;;5078840;28;20318;-68
2022/02/03 05:50:38;;;;;;;;;;;20.90;48.40;;;;;;5085734;28;19952;-67
2022/02/03 06:12:13;;;;;;;;;;;20.90;48.40;;;;;;5071453;28;20026;-69
2022/02/03 06:14:53;;;;;;;;;;;20.80;48.40;;;;;;5081486;28;20360;-71
2022/02/03 06:22:49;;;;;;;;;;;20.80;48.50;;;;;;5085500;28;19950;-71
2022/02/03 06:28:01;;;;;;;;;;;20.90;49.20;;;;;;5058866;28;19916;-69
2022/02/03 06:30:27;;;;;;;;;;;21.00;49.80;;;;;;5087922;28;19995;-69
2022/02/03 06:32:52;;;;;;;;;;;21.20;49.90;;;;;;5086872;28;19940;-72
2022/02/03 06:35:18;;;;;;;;;;;21.40;49.80;;;;;;5087107;28;19959;-72
2022/02/03 06:37:45;;;;;;;;;;;21.50;49.60;;;;;;5087744;28;19916;-73
2022/02/03 06:40:11;;;;;;;;;;;21.70;49.40;;;;;;5089182;28;20308;-73
2022/02/03 06:42:37;;;;;;;;;;;21.80;49.10;;;;;;5084151;28;19924;-68
2022/02/03 06:45:58;;;;;;;;;;;22.00;48.70;;;;;;5080752;28;19924;-73
2022/02/03 06:50:46;;;;;;;;;;;22.20;48.50;;;;;;5085085;28;19916;-70
2022/02/03 06:53:19;;;;;;;;;;;22.40;48.50;;;;;;5084079;28;19912;-67
2022/02/03 06:58:37;;;;;;;;;;;22.60;47.80;;;;;;5085854;28;19920;-69
2022/02/03 07:03:36;;;;;;;;;;;22.90;47.20;;;;;;5085374;28;19916;-66
2022/02/03 07:06:02;;;;;;;;;;;22.80;46.80;;;;;;5085791;28;19938;-67
2022/02/03 07:08:29;;;;;;;;;;;22.80;46.90;;;;;;5084840;28;19912;-64
2022/02/03 07:10:56;;;;;;;;;;;22.70;47.00;;;;;;5087942;28;19952;-68
2022/02/03 07:13:22;;;;;;;;;;;22.70;47.10;;;;;;5083084;28;20023;-70
2022/02/03 07:15:48;;;;;;;;;;;22.60;47.00;;;;;;5088590;28;19970;-66
2022/02/03 07:18:13;;;;;;;;;;;22.70;47.50;;;;;;5085396;28;19952;-69
2022/02/03 07:20:39;;;;;;;;;;;22.90;47.30;;;;;;5087100;28;19930;-67
2022/02/03 07:23:09;;;;;;;;;;;23.20;47.00;;;;;;5083850;28;19924;-67
2022/02/03 07:25:35;;;;;;;;;;;23.40;47.10;;;;;;5084238;28;19916;-67
2022/02/03 07:28:02;;;;;;;;;;;23.30;46.10;;;;;;5084382;28;19912;-68
2022/02/03 07:30:27;;;;;;;;;;;23.20;46.10;;;;;;5086044;28;19912;-69
2022/02/03 07:32:56;;;;;;;;;;;23.20;46.20;;;;;;5086304;28;20015;-70
2022/02/03 07:35:22;;;;;;;;;;;23.10;46.20;;;;;;5085644;28;19916;-67
2022/02/03 07:37:49;;;;;;;;;;;23.10;46.40;;;;;;5087579;28;19969;-72
2022/02/03 07:40:15;;;;;;;;;;;23.10;46.40;;;;;;5088400;28;19923;-66
2022/02/03 07:42:41;;;;;;;;;;;23.00;46.40;;;;;;5086283;28;19926;-69
2022/02/03 07:45:07;;;;;;;;;;;23.10;46.40;;;;;;5082003;28;20379;-69
2022/02/03 07:47:33;;;;;;;;;;;23.00;46.40;;;;;;5083606;28;19930;-69
2022/02/03 07:49:58;;;;;;;;;;;23.10;46.40;;;;;;5083344;28;19959;-69
2022/02/03 07:52:24;;;;;;;;;;;23.00;46.30;;;;;;5084714;28;19916;-65
2022/02/03 07:54:49;;;;;;;;;;;23.00;46.70;;;;;;5081767;28;20378;-67
2022/02/03 07:57:15;;;;;;;;;;;23.00;46.50;;;;;;5082449;28;20326;-65
2022/02/03 07:59:41;;;;;;;;;;;23.10;46.50;;;;;;5084776;28;20606;-68
2022/02/03 08:02:06;;;;;;;;;;;23.10;46.40;;;;;;5082312;28;19920;-70
2022/02/03 08:04:34;;;;;;;;;;;23.10;46.40;;;;;;5084067;28;20628;-70
2022/02/03 08:07:00;;;;;;;;;;;23.10;46.40;;;;;;5083330;28;20327;-67
2022/02/03 08:09:36;;;;;;;;;;;23.10;46.40;;;;;;5082971;28;20002;-68
2022/02/03 08:12:07;;;;;;;;;;;23.10;46.40;;;;;;5083647;28;19966;-70
2022/02/03 08:14:38;;;;;;;;;;;23.10;46.40;;;;;;5080117;28;19924;-70
2022/02/03 08:17:09;;;;;;;;;;;23.10;46.40;;;;;;5086393;28;19966;-68
2022/02/03 08:19:52;;;;;;;;;;;23.10;46.30;;;;;;5085247;28;19951;-67
2022/02/03 08:22:28;;;;;;;;;;;23.10;46.30;;;;;;5083518;28;19923;-67
2022/02/03 08:32:44;;;;;;;;;;;23.10;46.30;;;;;;5084762;28;19966;-66
2022/02/03 08:35:21;;;;;;;;;;;23.10;46.30;;;;;;5084081;28;19916;-71
2022/02/03 08:37:59;;;;;;;;;;;23.10;46.20;;;;;;5087034;28;19938;-71
2022/02/03 08:40:43;;;;;;;;;;;23.10;46.20;;;;;;5088071;28;19916;-69
2022/02/03 08:43:10;;;;;;;;;;;23.10;46.20;;;;;;5080464;28;19926;-65
2022/02/03 08:45:35;;;;;;;;;;;23.10;46.20;;;;;;5084285;28;19922;-71
2022/02/03 08:48:01;;;;;;;;;;;23.10;46.20;;;;;;5083926;28;20336;-71
2022/02/03 08:50:27;;;;;;;;;;;23.10;46.20;;;;;;5084659;28;19916;-69
2022/02/03 09:37:11;;;;;;;;;;;23.20;46.10;;;;;;5085968;28;20013;-69
2022/02/03 09:58:18;;;;;;;;;;;23.20;46.20;;;;;;5087409;28;20018;-74
2022/02/03 10:03:36;;;;;;;;;;;23.20;46.10;;;;;;5089583;28;19928;-70
2022/02/03 10:06:13;;;;;;;;;;;23.20;46.10;;;;;;5089254;28;20359;-70
2022/02/03 10:08:44;;;;;;;;;;;23.30;46.20;;;;;;5087721;28;19957;-70
2022/02/03 10:11:14;;;;;;;;;;;23.20;46.10;;;;;;5088743;28;19913;-68
2022/02/03 10:13:42;;;;;;;;;;;23.30;46.20;;;;;;5079163;28;19923;-69
2022/02/03 10:16:07;;;;;;;;;;;23.30;46.10;;;;;;5085229;28;19916;-66
2022/02/03 10:18:33;;;;;;;;;;;23.30;46.10;;;;;;5088284;28;19927;-70
2022/02/03 10:21:01;;;;;;;;;;;23.30;46.10;;;;;;5086812;28;20397;-70
2022/02/03 10:23:28;;;;;;;;;;;23.30;46.10;;;;;;5086503;28;19919;-68
2022/02/03 10:26:04;;;;;;;;;;;23.30;46.10;;;;;;5088211;28;20014;-66
2022/02/03 10:28:29;;;;;;;;;;;23.30;46.10;;;;;;5087134;28;19916;-70
2022/02/03 10:31:01;;;;;;;;;;;23.30;46.10;;;;;;5087094;28;20018;-71
2022/02/03 10:33:39;;;;;;;;;;;23.30;46.10;;;;;;5086943;28;20376;-67
2022/02/03 10:36:19;;;;;;;;;;;23.30;46.10;;;;;;5087830;28;20324;-66
2022/02/03 10:49:30;;;;;;;;;;;23.40;46.00;;;;;;5085039;28;20399;-71
2022/02/03 11:05:38;;;;;;;;;;;23.40;46.90;;;;;;5083310;28;19916;-69
2022/02/03 11:08:52;;;;;;;;;;;23.50;46.60;;;;;;5084427;28;20607;-71
2022/02/03 11:10:58;;;;;;;;;;;23.50;46.80;;;;;;5079027;28;19920;-69
2022/02/03 11:13:27;;;;;;;;;;;23.50;46.40;;;;;;5080526;28;19916;-68
2022/02/03 11:15:53;;;;;;;;;;;23.50;46.20;;;;;;5079472;28;19927;-68
2022/02/03 11:18:19;;;;;;;;;;;23.50;46.50;;;;;;5085760;28;19920;-73
2022/02/03 11:20:44;;;;;;;;;;;23.50;47.00;;;;;;5085645;28;19999;-68
2022/02/03 11:42:00;;;;;;;;;;;23.60;46.30;;;;;;5082632;28;19965;-70
2022/02/03 12:01:04;;;;;;;;;;;23.70;45.70;;;;;;5080768;28;19931;-68
2022/02/03 12:17:50;;;;;;;;;;;23.70;45.40;;;;;;5084931;28;19912;-70
2022/02/03 12:23:39;;;;;;;;;;;23.70;45.40;;;;;;5080702;28;19949;-72
2022/02/03 12:26:10;;;;;;;;;;;23.70;45.40;;;;;;5082777;28;20324;-73
2022/02/03 12:28:48;;;;;;;;;;;23.70;45.50;;;;;;5082698;28;19973;-75
2022/02/03 12:39:04;;;;;;;;;;;23.70;45.60;;;;;;5081111;28;19942;-72
2022/02/03 12:42:06;;;;;;;;;;;23.60;45.90;;;;;;5082738;28;19923;-73
2022/02/03 12:44:26;;;;;;;;;;;23.60;45.80;;;;;;5076069;28;19943;-71
2022/02/03 12:46:54;;;;;;;;;;;23.60;45.80;;;;;;5080440;28;20350;-71
2022/02/03 12:49:20;;;;;;;;;;;23.60;45.70;;;;;;5080993;28;19916;-74
2022/02/03 12:51:46;;;;;;;;;;;23.60;45.90;;;;;;5083572;28;19916;-73
2022/02/03 12:54:12;;;;;;;;;;;23.60;46.00;;;;;;5081947;28;19927;-72
2022/02/03 12:56:38;;;;;;;;;;;23.60;46.10;;;;;;5083542;28;19923;-69
2022/02/03 12:59:04;;;;;;;;;;;23.60;46.20;;;;;;5078047;28;19920;-70
2022/02/03 13:01:35;;;;;;;;;;;23.50;46.40;;;;;;5081787;28;19920;-69
2022/02/03 13:04:08;;;;;;;;;;;23.50;46.30;;;;;;5079583;28;19946;-67
2022/02/03 13:06:34;;;;;;;;;;;23.50;46.30;;;;;;5083124;28;19921;-68
2022/02/03 13:09:07;;;;;;;;;;;23.60;46.20;;;;;;5080076;28;20329;-70
2022/02/03 13:16:50;;;;;;;;;;;23.60;46.30;;;;;;5082446;28;19916;-69
2022/02/03 13:19:22;;;;;;;;;;;23.50;46.30;;;;;;5078191;28;19923;-67
2022/02/03 13:26:51;;;;;;;;;;;23.60;46.20;;;;;;5084532;28;19928;-68
2022/02/03 13:29:25;;;;;;;;;;;23.60;46.20;;;;;;5075496;28;20461;-68
2022/02/03 13:31:59;;;;;;;;;;;23.50;46.20;;;;;;5084117;28;19969;-68
2022/02/03 13:34:33;;;;;;;;;;;23.50;46.30;;;;;;5085305;28;19926;-68
2022/02/03 13:37:15;;;;;;;;;;;23.50;46.40;;;;;;5085438;28;19916;-67
2022/02/03 13:39:48;;;;;;;;;;;23.50;46.40;;;;;;5085419;28;19955;-68
2022/02/03 13:42:14;;;;;;;;;;;23.50;46.50;;;;;;5089173;28;20703;-70
2022/02/03 13:44:42;;;;;;;;;;;23.50;46.40;;;;;;5087502;28;19994;-71
2022/02/03 13:47:21;;;;;;;;;;;23.50;46.50;;;;;;5085314;28;19966;-71
2022/02/03 13:50:30;;;;;;;;;;;23.50;47.10;;;;;;5085627;28;19916;-71
2022/02/03 13:53:12;;;;;;;;;;;23.50;46.60;;;;;;5056495;28;19916;-68
2022/02/03 14:15:37;;;;;;;;;;;23.50;46.50;;;;;;5080903;28;19916;-69
2022/02/03 14:20:40;;;;;;;;;;;23.60;46.70;;;;;;5082140;28;19922;-69
2022/02/03 14:28:16;;;;;;;;;;;23.60;46.80;;;;;;5075816;28;22437;-73
2022/02/03 14:30:46;;;;;;;;;;;23.60;46.80;;;;;;5080673;28;19920;-71
2022/02/03 14:33:14;;;;;;;;;;;23.60;46.80;;;;;;5078655;28;19959;-70
2022/02/03 14:35:40;;;;;;;;;;;23.60;46.80;;;;;;5075668;28;20321;-69
2022/02/03 14:38:18;;;;;;;;;;;23.60;46.80;;;;;;5083169;28;20399;-68
2022/02/03 14:41:46;;;;;;;;;;;23.60;46.70;;;;;;5082411;28;19951;-73
2022/02/03 14:43:39;;;;;;;;;;;23.70;47.20;;;;;;5067917;28;19924;-71
2022/02/03 14:46:06;;;;;;;;;;;23.70;46.90;;;;;;5082783;28;19970;-71
2022/02/03 14:48:32;;;;;;;;;;;23.70;46.70;;;;;;5079965;28;19920;-71
2022/02/03 14:51:00;;;;;;;;;;;23.70;47.10;;;;;;5085219;28;19962;-70
2022/02/03 14:53:36;;;;;;;;;;;23.80;47.40;;;;;;5072514;28;19920;-71
2022/02/03 14:58:45;;;;;;;;;;;23.80;46.80;;;;;;5079368;28;20469;-70
2022/02/03 15:01:12;;;;;;;;;;;23.80;46.80;;;;;;5081423;28;19916;-69
2022/02/03 15:03:38;;;;;;;;;;;23.80;47.40;;;;;;5081342;28;19923;-70
2022/02/03 15:06:09;;;;;;;;;;;23.90;47.60;;;;;;5082561;28;19916;-71
2022/02/03 15:16:02;;;;;;;;;;;24.10;48.00;;;;;;5081509;28;19916;-69
2022/02/03 15:18:28;;;;;;;;;;;24.10;48.00;;;;;;5082810;28;19916;-70
2022/02/03 15:20:54;;;;;;;;;;;24.10;48.20;;;;;;5081995;28;19963;-71
2022/02/03 15:23:20;;;;;;;;;;;24.20;48.30;;;;;;5078604;28;20007;-68
2022/02/03 15:25:45;;;;;;;;;;;24.20;46.80;;;;;;5083146;28;20083;-68
2022/02/03 15:28:11;;;;;;;;;;;24.10;46.20;;;;;;5079453;28;20440;-67
2022/02/03 15:30:36;;;;;;;;;;;24.10;45.90;;;;;;5080072;28;19923;-68
2022/02/03 15:33:03;;;;;;;;;;;24.00;45.90;;;;;;5079736;28;19974;-68
2022/02/03 15:37:57;;;;;;;;;;;23.90;46.00;;;;;;5073916;28;19920;-69
2022/02/03 15:40:25;;;;;;;;;;;23.90;45.90;;;;;;5078730;28;19975;-68
2022/02/03 15:43:02;;;;;;;;;;;23.80;46.00;;;;;;5078693;28;20017;-68
2022/02/03 15:45:36;;;;;;;;;;;23.80;46.00;;;;;;5081649;28;20000;-68
2022/02/03 15:48:10;;;;;;;;;;;23.70;46.00;;;;;;5074876;28;20447;-69
2022/02/03 16:17:10;;;;;;;;;;;23.40;46.40;;;;;;5079380;28;20000;-68
2022/02/03 16:19:53;;;;;;;;;;;23.40;46.50;;;;;;5078730;28;19916;-69
2022/02/03 16:22:29;;;;;;;;;;;23.40;46.60;;;;;;5082892;28;19971;-69
2022/02/03 16:25:07;;;;;;;;;;;23.30;46.60;;;;;;5079653;28;19920;-68
2022/02/03 16:42:04;;;;;;;;;;;23.20;46.90;;;;;;5082463;28;20025;-68
2022/02/03 16:54:31;;;;;;;;;;;23.00;47.50;;;;;;5083290;28;19963;-68
2022/02/03 16:57:02;;;;;;;;;;;23.00;47.10;;;;;;5084087;28;19945;-68
2022/02/03 16:59:30;;;;;;;;;;;23.00;47.10;;;;;;5078892;28;19916;-68
2022/02/03 17:01:55;;;;;;;;;;;23.00;47.10;;;;;;5081818;28;20647;-68
2022/02/03 17:04:21;;;;;;;;;;;22.90;47.10;;;;;;5084119;28;19951;-68
2022/02/03 17:06:47;;;;;;;;;;;22.90;47.20;;;;;;5082563;28;19962;-69
2022/02/03 17:09:12;;;;;;;;;;;22.90;47.20;;;;;;5082924;28;19965;-68
2022/02/03 17:11:38;;;;;;;;;;;22.90;47.20;;;;;;5078235;28;20531;-68
2022/02/03 17:14:03;;;;;;;;;;;22.90;47.30;;;;;;5078298;28;19927;-68
2022/02/03 17:16:29;;;;;;;;;;;22.90;47.30;;;;;;5081294;28;19954;-68
2022/02/03 17:18:56;;;;;;;;;;;22.80;47.30;;;;;;5079004;28;20324;-68
2022/02/03 17:21:25;;;;;;;;;;;22.80;47.30;;;;;;5084648;28;19926;-68
2022/02/03 17:23:50;;;;;;;;;;;22.80;47.30;;;;;;5081340;28;19916;-68
2022/02/03 17:26:23;;;;;;;;;;;22.80;47.30;;;;;;5083188;28;20401;-68
2022/02/03 17:28:57;;;;;;;;;;;22.80;47.40;;;;;;5080531;28;19947;-69
2022/02/03 17:31:38;;;;;;;;;;;22.80;47.40;;;;;;5081534;28;20004;-68
2022/02/03 18:17:17;;;;;;;;;;;22.50;48.00;;;;;;5082931;28;19916;-68
2022/02/03 18:17:59;;;;;;;;;;;22.40;48.10;;;;;;5080387;28;19982;-69
2022/02/03 18:57:24;;;;;;;;;;;22.30;48.60;;;;;;5079528;28;19923;-68
2022/02/03 19:03:09;;;;;;;;;;;22.20;48.60;;;;;;5054696;28;19920;-68
2022/02/03 19:12:15;;;;;;;;;;;22.20;48.70;;;;;;5080752;28;20403;-69
2022/02/03 20:01:25;;;;;;;;;;;22.00;48.90;;;;;;5076289;28;19924;-65
2022/02/03 20:08:51;;;;;;;;;;;22.00;48.90;;;;;;5075754;28;20061;-66
2022/02/03 20:11:18;;;;;;;;;;;21.90;48.80;;;;;;5072933;28;19955;-67
2022/02/03 20:13:46;;;;;;;;;;;22.00;48.90;;;;;;5071743;28;19977;-65
2022/02/03 20:16:15;;;;;;;;;;;21.90;48.80;;;;;;5071549;28;20286;-66
2022/02/03 20:18:44;;;;;;;;;;;21.90;48.90;;;;;;5073823;28;19966;-68
2022/02/03 20:21:10;;;;;;;;;;;21.90;48.90;;;;;;5090828;28;19916;-67
2022/02/03 20:23:41;;;;;;;;;;;21.90;49.00;;;;;;5072690;28;19928;-64
2022/02/03 20:26:07;;;;;;;;;;;21.90;48.90;;;;;;5074241;28;19927;-68
2022/02/03 20:28:32;;;;;;;;;;;21.90;49.00;;;;;;5070162;28;19916;-68
2022/02/03 20:31:01;;;;;;;;;;;21.90;49.00;;;;;;5075544;28;19963;-67
2022/02/03 20:33:26;;;;;;;;;;;21.90;49.00;;;;;;5072428;28;20047;-65
2022/02/03 20:35:52;;;;;;;;;;;21.90;49.00;;;;;;5067419;28;20617;-65
2022/02/03 20:38:20;;;;;;;;;;;21.90;49.10;;;;;;5069054;28;20011;-63
2022/02/03 20:40:46;;;;;;;;;;;21.90;49.00;;;;;;5070773;28;20314;-61
2022/02/03 20:43:12;;;;;;;;;;;22.00;49.10;;;;;;5098736;27;19974;-65
2022/02/03 20:45:41;;;;;;;;;;;22.00;49.00;;;;;;5071555;28;20015;-64
2022/02/03 20:48:07;;;;;;;;;;;22.00;49.00;;;;;;5062864;28;20307;-65
2022/02/03 20:50:33;;;;;;;;;;;22.00;48.90;;;;;;5057398;28;19921;-67
2022/02/03 20:52:58;;;;;;;;;;;22.10;48.90;;;;;;5056757;28;19929;-66
2022/02/03 20:55:24;;;;;;;;;;;22.10;48.90;;;;;;5057033;28;19926;-61
2022/02/03 20:57:49;;;;;;;;;;;22.10;49.00;;;;;;5055821;28;19924;-67
2022/02/03 21:03:00;;;;;;;;;;;22.10;48.80;;;;;;5052313;28;19932;-63
2022/02/03 21:05:25;;;;;;;;;;;22.10;48.80;;;;;;5057179;28;19967;-63
2022/02/03 21:07:51;;;;;;;;;;;22.20;48.90;;;;;;5055316;28;19974;-64
2022/02/03 21:10:25;;;;;;;;;;;22.20;48.80;;;;;;5058156;28;19923;-64
2022/02/03 21:12:54;;;;;;;;;;;22.20;48.70;;;;;;5055745;28;20015;-63
2022/02/03 21:15:24;;;;;;;;;;;22.30;48.70;;;;;;5056205;28;19920;-64
2022/02/03 21:18:00;;;;;;;;;;;22.30;48.70;;;;;;5058225;28;19924;-65
2022/02/03 21:20:25;;;;;;;;;;;22.30;48.70;;;;;;5058899;28;19923;-65
2022/02/03 21:22:51;;;;;;;;;;;22.30;48.70;;;;;;5057418;28;19920;-63
2022/02/03 21:25:27;;;;;;;;;;;22.30;48.50;;;;;;5058607;28;20669;-62
2022/02/03 21:27:55;;;;;;;;;;;22.30;48.50;;;;;;5054750;28;20035;-66
2022/02/03 21:30:21;;;;;;;;;;;22.40;48.50;;;;;;5054481;28;19920;-67
2022/02/03 21:32:47;;;;;;;;;;;22.40;48.50;;;;;;5055851;28;19950;-64
2022/02/03 21:35:14;;;;;;;;;;;22.40;48.60;;;;;;5058423;28;19970;-67
2022/02/03 21:37:40;;;;;;;;;;;22.40;48.50;;;;;;5055263;28;19960;-66
2022/02/03 21:40:07;;;;;;;;;;;22.40;48.40;;;;;;5056526;28;19970;-66
2022/02/03 21:42:32;;;;;;;;;;;22.50;48.40;;;;;;5053361;28;19917;-64
2022/02/03 21:44:58;;;;;;;;;;;22.50;48.40;;;;;;5055369;28;19916;-65
2022/02/03 21:47:23;;;;;;;;;;;22.50;48.40;;;;;;5056144;28;20269;-65
2022/02/03 21:49:49;;;;;;;;;;;22.50;48.40;;;;;;5057311;28;19923;-65
2022/02/03 21:52:20;;;;;;;;;;;22.50;48.50;;;;;;5055309;28;19951;-62
2022/02/03 21:54:46;;;;;;;;;;;22.60;48.50;;;;;;5054949;28;19978;-67
2022/02/03 21:57:12;;;;;;;;;;;22.60;48.60;;;;;;5056344;28;19928;-67
2022/02/03 21:59:37;;;;;;;;;;;22.50;48.60;;;;;;5051967;28;19916;-62
2022/02/03 22:02:06;;;;;;;;;;;22.50;48.70;;;;;;5057239;28;20372;-64
2022/02/03 22:04:31;;;;;;;;;;;22.50;48.60;;;;;;5056485;28;20497;-64
2022/02/03 22:06:57;;;;;;;;;;;22.50;48.70;;;;;;5054952;28;19964;-64
2022/02/03 22:09:22;;;;;;;;;;;22.50;48.70;;;;;;5048865;28;20038;-66
2022/02/03 22:11:48;;;;;;;;;;;22.60;48.70;;;;;;5058364;28;19921;-63
2022/02/03 22:14:14;;;;;;;;;;;22.60;48.70;;;;;;5053222;28;19921;-63
2022/02/03 22:16:39;;;;;;;;;;;22.60;48.60;;;;;;5057558;28;19947;-64
2022/02/03 22:19:05;;;;;;;;;;;22.60;48.50;;;;;;5054276;28;20762;-66
2022/02/03 22:24:14;;;;;;;;;;;22.70;48.40;;;;;;5054456;28;19916;-64
2022/02/03 22:27:10;;;;;;;;;;;22.70;48.40;;;;;;5056845;28;19920;-67
2022/02/03 22:46:24;;;;;;;;;;;22.80;48.20;;;;;;5056469;28;19927;-61
2022/02/03 22:48:49;;;;;;;;;;;22.80;48.20;;;;;;5056025;28;19977;-66
2022/02/03 22:51:15;;;;;;;;;;;22.80;48.20;;;;;;5058575;28;19924;-66
2022/02/03 22:53:42;;;;;;;;;;;22.80;48.10;;;;;;5053804;28;19921;-64
2022/02/03 22:56:10;;;;;;;;;;;22.80;48.10;;;;;;5058854;28;19963;-63
2022/02/03 23:01:11;;;;;;;;;;;22.80;48.00;;;;;;5058832;28;19916;-65
2022/02/03 23:03:37;;;;;;;;;;;22.80;48.00;;;;;;5057076;28;19923;-65
2022/02/03 23:06:03;;;;;;;;;;;22.80;48.00;;;;;;5061028;28;19921;-63
2022/02/03 23:09:17;;;;;;;;;;;22.80;47.90;;;;;;5060906;28;19916;-61
2022/02/03 23:14:02;;;;;;;;;;;22.90;47.90;;;;;;5056631;28;19916;-63
2022/02/03 23:19:30;;;;;;;;;;;22.90;47.80;;;;;;5059808;28;20760;-65
2022/02/03 23:24:31;;;;;;;;;;;22.90;47.80;;;;;;5060384;28;20311;-62
2022/02/03 23:27:09;;;;;;;;;;;22.90;47.80;;;;;;5059577;28;19916;-66
2022/02/03 23:29:38;;;;;;;;;;;22.90;47.70;;;;;;5057544;28;19924;-65
2022/02/03 23:32:09;;;;;;;;;;;22.90;47.70;;;;;;5059521;28;19917;-66
2022/02/03 23:34:36;;;;;;;;;;;22.90;47.70;;;;;;5056162;28;20018;-65
2022/02/03 23:37:03;;;;;;;;;;;22.90;47.70;;;;;;5058251;28;19924;-63
2022/02/03 23:40:18;;;;;;;;;;;22.90;47.60;;;;;;5053947;28;20291;-66
2022/02/03 23:48:10;;;;;;;;;;;22.90;47.50;;;;;;5062856;28;19928;-65
